Time;durP1;ratioP1;P1;durP2;ratioP2;P2;SDS_P1;SDS_P2;PMS_P1;PMS_P2;Temp;Humidity;BMP_temperature;BMP_pressure;BME280_temperature;BME280_humidity;BME280_pressure;Samples;Min_cycle;Max_cycle;Signal;HPM_P1;HPM_P2
2023/02/23 00:02:00;;;;;;;30.80;17.30;;;;;;;6.54;100.00;100427.42;108557;1256;59665;-78
2023/02/23 00:04:28;;;;;;;33.40;18.10;;;;;;;6.54;100.00;100428.67;108747;1260;59437;-78
2023/02/23 00:06:55;;;;;;;33.20;17.80;;;;;;;6.55;100.00;100430.70;108658;1256;73201;-78
2023/02/23 00:09:26;;;;;;;34.60;18.30;;;;;;;6.55;100.00;100431.19;108706;1256;73299;-78
2023/02/23 00:11:55;;;;;;;34.00;19.30;;;;;;;6.56;100.00;100433.52;108645;1256;74143;-78
2023/02/23 00:14:26;;;;;;;33.80;19.10;;;;;;;6.57;100.00;100433.13;108763;1256;62372;-78
2023/02/23 00:16:55;;;;;;;34.80;19.60;;;;;;;6.58;100.00;100431.23;108759;1256;59252;-78
2023/02/23 00:19:23;;;;;;;35.00;19.90;;;;;;;6.58;100.00;100433.04;108744;1260;74628;-78
2023/02/23 00:21:51;;;;;;;30.70;19.10;;;;;;;6.58;100.00;100432.61;108658;1256;69982;-78
2023/02/23 00:24:19;;;;;;;32.60;17.70;;;;;;;6.60;100.00;100430.71;108766;1256;71523;-78
2023/02/23 00:26:47;;;;;;;33.40;18.80;;;;;;;6.61;100.00;100435.10;108733;1256;60921;-78
2023/02/23 00:29:16;;;;;;;33.30;18.70;;;;;;;6.63;100.00;100432.67;108743;1257;60035;-78
2023/02/23 00:31:44;;;;;;;36.20;19.40;;;;;;;6.65;100.00;100427.58;108744;1256;73131;-78
2023/02/23 00:34:13;;;;;;;32.30;17.80;;;;;;;6.66;100.00;100425.11;108851;1256;71203;-78
2023/02/23 00:36:40;;;;;;;33.50;18.10;;;;;;;6.67;100.00;100427.14;108835;1256;71766;-78
2023/02/23 00:39:27;;;;;;;33.60;18.70;;;;;;;6.69;100.00;100422.80;108706;1257;59661;-78
2023/02/23 00:41:55;;;;;;;30.90;17.70;;;;;;;6.71;100.00;100427.27;108638;1256;59015;-78
2023/02/23 00:44:23;;;;;;;32.00;18.10;;;;;;;6.73;100.00;100427.40;108831;1256;73099;-78
2023/02/23 00:46:50;;;;;;;28.20;17.50;;;;;;;6.74;100.00;100430.30;108649;1256;70923;-78
2023/02/23 00:49:21;;;;;;;31.00;17.60;;;;;;;6.75;100.00;100429.29;108642;1256;73110;-78
2023/02/23 00:51:48;;;;;;;31.40;18.40;;;;;;;6.78;100.00;100425.88;108630;1260;62073;-78
2023/02/23 00:54:16;;;;;;;29.80;17.70;;;;;;;6.79;100.00;100430.66;108806;1260;60158;-78
2023/02/23 00:56:43;;;;;;;31.50;16.90;;;;;;;6.80;100.00;100432.18;108790;1260;73450;-78
2023/02/23 00:59:11;;;;;;;29.10;16.90;;;;;;;6.80;100.00;100431.96;108658;1256;69944;-78
2023/02/23 01:01:40;;;;;;;28.50;17.00;;;;;;;6.80;100.00;100435.86;108648;1257;72739;-78
2023/02/23 01:04:08;;;;;;;26.50;16.90;;;;;;;6.80;100.00;100435.01;108792;1256;61180;-78
2023/02/23 01:06:36;;;;;;;30.10;16.60;;;;;;;6.79;100.00;100436.98;108630;1259;58962;-78
2023/02/23 01:09:14;;;;;;;27.40;16.70;;;;;;;6.80;100.00;100439.70;108668;1256;74451;-78
2023/02/23 01:11:45;;;;;;;27.70;16.60;;;;;;;6.81;100.00;100440.69;108808;1256;71991;-78
2023/02/23 01:14:12;;;;;;;28.20;16.30;;;;;;;6.82;100.00;100436.05;108812;1256;71617;-78
2023/02/23 01:16:39;;;;;;;25.70;16.40;;;;;;;6.83;100.00;100444.83;108610;1260;61440;-78
2023/02/23 01:19:06;;;;;;;26.90;16.60;;;;;;;6.84;100.00;100440.88;108586;1256;60139;-78
2023/02/23 01:21:40;;;;;;;27.20;15.30;;;;;;;6.83;100.00;100439.38;108668;1256;74292;-78
2023/02/23 01:24:08;;;;;;;26.60;16.50;;;;;;;6.83;100.00;100440.64;108803;1257;71393;-78
2023/02/23 01:26:37;;;;;;;26.10;16.10;;;;;;;6.83;100.00;100444.21;108798;1256;72840;-78
2023/02/23 01:29:07;;;;;;;26.40;15.50;;;;;;;6.82;100.00;100445.67;108699;1256;59696;-78
2023/02/23 01:31:36;;;;;;;25.30;16.20;;;;;;;6.83;100.00;100449.10;108835;1256;60201;-78
2023/02/23 01:34:04;;;;;;;23.50;15.70;;;;;;;6.84;100.00;100446.17;108694;1256;73500;-78
2023/02/23 01:36:37;;;;;;;25.70;15.80;;;;;;;6.85;100.00;100447.99;108675;1262;71027;-78
2023/02/23 01:39:06;;;;;;;27.40;16.50;;;;;;;6.87;100.00;100448.85;108814;1256;72378;-78
2023/02/23 01:41:35;;;;;;;23.70;16.30;;;;;;;6.88;100.00;100451.36;108661;1256;59892;-78
2023/02/23 01:44:11;;;;;;;23.60;15.80;;;;;;;6.88;100.00;100447.68;108823;1256;60692;-78
2023/02/23 01:46:42;;;;;;;25.90;15.70;;;;;;;6.88;100.00;100450.77;108780;1256;74535;-78
2023/02/23 01:49:15;;;;;;;20.40;14.30;;;;;;;6.88;100.00;100452.59;108826;1256;70286;-78
2023/02/23 01:51:48;;;;;;;25.40;16.20;;;;;;;6.87;100.00;100453.70;108789;1256;71770;-78
2023/02/23 01:54:20;;;;;;;20.90;15.50;;;;;;;6.87;100.00;100457.76;108640;1262;59744;-78
2023/02/23 01:56:56;;;;;;;24.00;15.60;;;;;;;6.87;100.00;100454.27;108627;1262;59200;-78
2023/02/23 01:59:38;;;;;;;23.40;15.70;;;;;;;6.88;100.00;100456.45;108793;1260;73501;-78
2023/02/23 02:02:05;;;;;;;23.40;15.60;;;;;;;6.90;100.00;100456.39;108793;1260;69617;-78
2023/02/23 02:04:43;;;;;;;24.80;15.10;;;;;;;6.91;100.00;100457.67;108590;1256;72923;-78
2023/02/23 02:07:21;;;;;;;22.70;14.80;;;;;;;6.93;100.00;100454.92;108769;1258;59797;-78
2023/02/23 02:12:43;;;;;;;22.30;15.60;;;;;;;6.94;100.00;100458.25;108802;1260;74140;-78
2023/02/23 02:15:16;;;;;;;23.10;15.00;;;;;;;6.95;100.00;100457.73;108756;1257;70011;-79
2023/02/23 02:18:07;;;;;;;22.50;15.30;;;;;;;6.93;100.00;100462.14;108658;1256;72719;-78
2023/02/23 02:21:03;;;;;;;21.60;15.10;;;;;;;6.92;100.00;100461.67;108737;1256;59522;-78
2023/02/23 02:24:01;;;;;;;23.60;16.10;;;;;;;6.90;100.00;100459.42;108803;1256;59491;-78
2023/02/23 02:26:52;;;;;;;22.40;15.90;;;;;;;6.90;100.00;100458.52;108837;1256;74368;-78
2023/02/23 02:29:51;;;;;;;23.70;16.20;;;;;;;6.91;100.00;100454.94;108802;1256;70257;-78
2023/02/23 02:32:38;;;;;;;24.50;16.30;;;;;;;6.95;100.00;100459.32;108775;1256;72019;-77
2023/02/23 02:35:30;;;;;;;26.80;17.90;;;;;;;6.97;100.00;100455.77;108813;1256;62507;-78
2023/02/23 02:38:22;;;;;;;25.70;18.00;;;;;;;7.01;100.00;100455.23;108788;1256;59621;-78
2023/02/23 02:41:05;;;;;;;25.80;18.20;;;;;;;7.05;100.00;100454.45;108802;1257;73911;-78
2023/02/23 02:43:49;;;;;;;26.70;18.30;;;;;;;7.08;100.00;100456.52;108786;1256;71170;-78
2023/02/23 02:46:21;;;;;;;27.40;19.60;;;;;;;7.12;100.00;100454.92;108762;1256;72703;-78
2023/02/23 02:49:25;;;;;;;28.20;19.90;;;;;;;7.16;100.00;100451.96;108799;1257;60269;-78
2023/02/23 02:52:15;;;;;;;29.20;20.30;;;;;;;7.21;100.00;100451.02;108777;1259;59138;-78
2023/02/23 02:55:02;;;;;;;28.30;20.10;;;;;;;7.24;100.00;100451.23;108773;1260;74678;-78
2023/02/23 02:57:31;;;;;;;30.80;20.90;;;;;;;7.27;100.00;100451.61;108770;1256;70934;-78
2023/02/23 04:18:51;;;;;;;53.60;36.20;;;;;;;7.81;100.00;100460.03;108708;1257;59119;-78
2023/02/23 04:21:18;;;;;;;53.30;35.80;;;;;;;7.83;100.00;100458.95;108828;1257;74740;-78
2023/02/23 04:23:45;;;;;;;54.90;36.30;;;;;;;7.83;100.00;100457.92;108669;1258;71599;-78
2023/02/23 04:26:12;;;;;;;53.70;36.10;;;;;;;7.83;100.00;100459.11;108643;1257;72380;-78
2023/02/23 04:28:40;;;;;;;53.40;35.70;;;;;;;7.82;100.00;100456.20;108563;1263;62508;-78
2023/02/23 04:31:07;;;;;;;50.20;34.90;;;;;;;7.81;100.00;100457.92;108828;1258;61797;-78
2023/02/23 04:33:34;;;;;;;52.40;36.30;;;;;;;7.80;100.00;100451.88;108728;1257;75658;-78
2023/02/23 04:36:01;;;;;;;53.10;35.00;;;;;;;7.79;100.00;100449.50;108693;1257;71905;-78
2023/02/23 04:38:29;;;;;;;51.70;36.00;;;;;;;7.79;100.00;100452.56;108818;1258;73347;-78
2023/02/23 04:40:57;;;;;;;51.30;34.60;;;;;;;7.77;100.00;100453.55;108539;1257;62273;-78
2023/02/23 04:43:24;;;;;;;56.30;36.20;;;;;;;7.76;100.00;100454.91;108590;1256;59449;-78
2023/02/23 04:45:52;;;;;;;53.60;36.10;;;;;;;7.74;100.00;100455.08;108830;1257;73753;-78
2023/02/23 04:48:18;;;;;;;51.80;35.20;;;;;;;7.73;100.00;100455.52;108647;1257;69975;-78
2023/02/23 04:50:46;;;;;;;52.10;34.80;;;;;;;7.72;100.00;100456.35;108762;1257;73476;-78
2023/02/23 04:53:13;;;;;;;51.60;36.30;;;;;;;7.72;100.00;100457.11;108805;1257;59973;-78
2023/02/23 04:55:41;;;;;;;56.20;36.90;;;;;;;7.73;100.00;100461.03;108709;1257;59378;-78
2023/02/23 04:58:12;;;;;;;54.20;35.40;;;;;;;7.75;100.00;100464.85;108794;1257;74227;-78
2023/02/23 05:00:40;;;;;;;57.60;36.20;;;;;;;7.78;100.00;100468.25;108647;1257;71768;-77
2023/02/23 05:03:07;;;;;;;54.70;36.80;;;;;;;7.80;100.00;100467.71;108804;1257;70902;-78
2023/02/23 05:05:34;;;;;;;51.90;35.70;;;;;;;7.84;100.00;100466.54;108672;1257;61488;-78
2023/02/23 05:08:01;;;;;;;53.10;36.00;;;;;;;7.87;100.00;100468.67;108656;1256;58942;-78
2023/02/23 05:10:29;;;;;;;53.40;35.20;;;;;;;7.91;100.00;100469.19;108785;1258;73316;-78
2023/02/23 05:12:57;;;;;;;50.80;33.80;;;;;;;7.95;100.00;100470.35;108806;1257;71429;-78
2023/02/23 05:15:24;;;;;;;52.90;35.40;;;;;;;7.97;100.00;100470.81;108854;1257;71438;-78
2023/02/23 05:17:52;;;;;;;52.00;35.40;;;;;;;7.99;100.00;100471.49;108844;1257;60459;-78
2023/02/23 05:20:20;;;;;;;50.30;34.80;;;;;;;8.04;100.00;100474.13;108844;1256;59418;-78
2023/02/23 05:22:47;;;;;;;51.20;34.30;;;;;;;8.08;100.00;100476.74;108794;1257;74366;-78
2023/02/23 05:25:14;;;;;;;51.70;33.80;;;;;;;8.10;100.00;100472.70;108904;1257;69668;-78
2023/02/23 05:27:41;;;;;;;51.20;34.30;;;;;;;8.13;100.00;100470.63;108759;1256;71151;-78
2023/02/23 05:30:09;;;;;;;50.50;33.80;;;;;;;8.18;100.00;100472.36;108862;1256;60093;-78
2023/02/23 05:32:36;;;;;;;50.80;33.60;;;;;;;8.20;100.00;100473.67;108824;1257;60436;-78
2023/02/23 05:35:04;;;;;;;53.60;35.20;;;;;;;8.22;100.00;100474.54;108741;1257;75110;-78
2023/02/23 05:37:31;;;;;;;49.60;33.60;;;;;;;8.23;100.00;100471.04;108849;1257;69658;-78
2023/02/23 05:39:57;;;;;;;55.10;34.80;;;;;;;8.24;100.00;100471.00;108784;1257;70157;-78
2023/02/23 05:42:24;;;;;;;50.10;34.00;;;;;;;8.25;100.00;100473.52;108767;1257;59659;-78
2023/02/23 05:44:52;;;;;;;54.50;34.50;;;;;;;8.26;100.00;100471.83;108813;1256;60443;-78
2023/02/23 05:47:19;;;;;;;49.60;32.90;;;;;;;8.27;100.00;100470.51;108918;1257;75166;-78
2023/02/23 05:49:46;;;;;;;50.60;33.60;;;;;;;8.27;100.00;100469.09;108902;1257;69629;-78
2023/02/23 05:52:13;;;;;;;53.40;34.40;;;;;;;8.24;100.00;100471.49;108789;1257;72714;-77
2023/02/23 05:54:40;;;;;;;53.60;34.90;;;;;;;8.21;100.00;100469.55;108702;1257;59730;-78
2023/02/23 05:57:07;;;;;;;52.70;34.90;;;;;;;8.18;100.00;100470.86;108832;1257;60223;-78
2023/02/23 05:59:35;;;;;;;53.00;36.10;;;;;;;8.16;100.00;100471.95;108858;1256;74360;-78
2023/02/23 06:02:04;;;;;;;55.10;35.60;;;;;;;8.17;100.00;100470.94;108868;1257;69941;-78
2023/02/23 06:04:32;;;;;;;56.20;36.10;;;;;;;8.20;100.00;100471.15;108805;1257;71797;-78
2023/02/23 06:06:59;;;;;;;56.60;36.00;;;;;;;8.24;100.00;100473.39;108837;1257;60088;-77
2023/02/23 06:09:26;;;;;;;54.60;36.30;;;;;;;8.30;100.00;100478.61;108828;1257;58773;-78
2023/02/23 06:11:52;;;;;;;56.10;36.60;;;;;;;8.35;100.00;100476.41;108874;1257;73498;-77
2023/02/23 06:14:19;;;;;;;59.00;38.30;;;;;;;8.43;100.00;100480.93;108750;1257;69693;-77
2023/02/23 06:16:47;;;;;;;52.30;34.80;;;;;;;8.50;100.00;100479.63;108746;1256;70129;-77
2023/02/23 06:19:14;;;;;;;56.00;36.20;;;;;;;8.54;100.00;100481.33;108757;1256;59732;-77
2023/02/23 06:21:41;;;;;;;54.70;35.10;;;;;;;8.58;100.00;100483.21;108867;1260;59352;-77
2023/02/23 06:24:08;;;;;;;52.90;35.00;;;;;;;8.61;99.94;100482.64;108805;1256;76153;-77
2023/02/23 06:26:35;;;;;;;51.60;34.00;;;;;;;8.61;99.75;100486.54;108826;1257;70530;-77
2023/02/23 06:29:03;;;;;;;50.80;35.00;;;;;;;8.59;99.56;100489.79;108734;1257;72501;-77
2023/02/23 06:31:29;;;;;;;54.00;36.10;;;;;;;8.57;99.70;100494.35;108831;1257;59514;-77
2023/02/23 06:33:57;;;;;;;53.30;35.50;;;;;;;8.57;99.72;100494.75;108859;1256;59691;-77
2023/02/23 06:36:23;;;;;;;56.40;36.60;;;;;;;8.57;99.67;100497.88;108839;1257;73289;-77
2023/02/23 06:38:54;;;;;;;56.70;36.90;;;;;;;8.56;99.78;100500.77;108825;1256;70929;-77
2023/02/23 06:41:21;;;;;;;56.30;36.20;;;;;;;8.57;99.64;100501.58;108856;1256;73180;-77
2023/02/23 06:43:48;;;;;;;62.30;37.70;;;;;;;8.60;99.87;100502.61;108875;1256;59649;-77
2023/02/23 06:46:15;;;;;;;57.50;36.30;;;;;;;8.60;99.87;100504.81;108816;1258;60418;-77
2023/02/23 06:48:47;;;;;;;53.80;35.20;;;;;;;8.61;99.82;100505.77;108930;1256;73466;-77
2023/02/23 06:51:14;;;;;;;56.30;37.00;;;;;;;8.61;99.58;100509.08;108872;1256;69946;-77
2023/02/23 06:54:07;;;;;;;;;;;;;;;;;;;;;
2023/02/23 06:56:42;;;;;;;57.00;36.50;;;;;;;8.64;99.68;100509.17;108416;1262;60935;-78
2023/02/23 06:59:17;;;;;;;59.10;36.50;;;;;;;8.67;99.72;100509.38;108366;1261;59160;-78
2023/02/23 07:01:54;;;;;;;53.50;35.70;;;;;;;8.69;99.52;100511.75;108420;1260;73696;-78
2023/02/23 07:04:33;;;;;;;61.50;38.20;;;;;;;8.71;99.68;100511.69;108451;1264;69025;-77
2023/02/23 07:07:31;;;;;;;55.60;36.60;;;;;;;8.73;99.54;100510.82;108452;1261;72179;-78
2023/02/23 07:10:04;;;;;;;60.70;36.80;;;;;;;8.75;99.44;100512.01;108470;1262;61401;-77
2023/02/23 07:13:24;;;;;;;59.70;37.70;;;;;;;8.75;99.22;100511.95;108631;1260;59428;-82
2023/02/23 07:16:33;;;;;;;70.50;46.90;;;;;;;8.78;99.30;100519.60;108629;1260;73532;-81
2023/02/23 07:20:05;;;;;;;;;;;;;;;;;;;;;
2023/02/23 07:23:06;;;;;;;68.50;42.60;;;;;;;8.88;99.30;100525.75;108421;1265;71945;-80
2023/02/23 07:26:17;;;;;;;58.60;36.90;;;;;;;8.91;99.16;100527.30;108069;1268;59684;-80
2023/02/23 07:28:59;;;;;;;66.40;42.00;;;;;;;8.91;98.61;100529.08;108165;1268;59179;-81
2023/02/23 07:31:29;;;;;;;60.30;37.70;;;;;;;8.93;98.79;100529.21;108008;1268;75346;-81
2023/02/23 07:33:56;;;;;;;58.30;36.40;;;;;;;8.95;98.60;100532.55;107999;1270;71567;-76
2023/02/23 07:36:23;;;;;;;55.50;35.90;;;;;;;8.95;98.62;100533.38;108021;1270;71261;-76
2023/02/23 07:38:50;;;;;;;53.40;34.80;;;;;;;8.96;98.60;100535.95;107991;1270;60904;-76
2023/02/23 07:41:17;;;;;;;57.70;36.00;;;;;;;8.97;98.47;100537.27;108041;1268;60811;-77
2023/02/23 07:43:45;;;;;;;54.40;35.60;;;;;;;8.96;98.40;100536.35;108051;1268;73602;-77
2023/02/23 07:46:14;;;;;;;54.90;36.30;;;;;;;8.93;98.38;100536.48;108073;1268;70958;-76
2023/02/23 07:48:44;;;;;;;57.00;35.80;;;;;;;8.91;98.41;100540.02;107762;1268;254829;-76
2023/02/23 07:51:12;;;;;;;59.90;37.50;;;;;;;8.89;98.39;100539.58;107943;1268;59872;-76
2023/02/23 07:53:40;;;;;;;56.70;35.40;;;;;;;8.89;98.80;100541.31;107873;1270;59134;-76
2023/02/23 07:56:09;;;;;;;57.90;36.30;;;;;;;8.87;98.72;100544.04;107898;1268;72314;-76
2023/02/23 07:58:40;;;;;;;55.70;36.70;;;;;;;8.82;99.20;100547.17;108043;1267;70569;-76
2023/02/23 08:01:08;;;;;;;57.70;35.00;;;;;;;8.78;99.20;100546.09;108417;1263;72821;-76
2023/02/23 08:03:35;;;;;;;52.70;34.80;;;;;;;8.75;99.62;100550.46;108416;1263;60508;-76
2023/02/23 08:06:02;;;;;;;55.10;36.40;;;;;;;8.72;99.64;100547.03;108429;1263;58971;-76
2023/02/23 08:08:29;;;;;;;52.20;33.90;;;;;;;8.69;99.97;100546.48;108345;1263;74924;-76
2023/02/23 08:11:03;;;;;;;53.20;35.30;;;;;;;8.67;99.91;100551.27;108374;1264;71069;-76
2023/02/23 08:13:31;;;;;;;54.30;35.90;;;;;;;8.67;100.00;100550.76;108194;1264;71258;-76
2023/02/23 08:15:58;;;;;;;50.30;31.40;;;;;;;8.59;99.98;100550.02;108331;1263;61008;-76
2023/02/23 08:18:26;;;;;;;50.50;34.90;;;;;;;8.55;100.00;100548.00;108331;1263;60047;-77
2023/02/23 08:21:00;;;;;;;53.10;33.60;;;;;;;8.54;100.00;100550.03;108481;1261;74037;-77
2023/02/23 08:23:31;;;;;;;55.20;36.20;;;;;;;8.52;100.00;100555.65;108708;1257;69254;-77
2023/02/23 08:25:59;;;;;;;51.60;34.90;;;;;;;8.53;100.00;100561.44;108693;1258;72437;-77
2023/02/23 08:28:27;;;;;;;56.60;35.70;;;;;;;8.50;100.00;100564.88;108639;1258;59978;-77
2023/02/23 08:30:54;;;;;;;52.80;34.00;;;;;;;8.52;100.00;100567.19;108889;1256;61002;-77
2023/02/23 08:33:21;;;;;;;55.90;36.60;;;;;;;8.52;100.00;100566.27;108774;1256;74660;-77
2023/02/23 08:35:48;;;;;;;49.10;34.40;;;;;;;8.56;100.00;100568.48;108884;1256;69997;-77
2023/02/23 08:38:17;;;;;;;54.80;34.50;;;;;;;8.58;100.00;100569.91;108810;1256;72403;-78
2023/02/23 08:40:44;;;;;;;53.80;35.40;;;;;;;8.59;100.00;100573.37;108669;1257;59935;-77
2023/02/23 08:43:11;;;;;;;50.20;33.10;;;;;;;8.62;100.00;100576.01;108806;1257;59799;-77
2023/02/23 08:45:38;;;;;;;52.30;33.50;;;;;;;8.63;100.00;100580.27;108690;1257;73136;-77
2023/02/23 08:48:06;;;;;;;50.40;32.10;;;;;;;8.62;100.00;100577.96;108891;1256;70622;-77
2023/02/23 08:50:33;;;;;;;47.60;33.00;;;;;;;8.64;100.00;100580.50;108745;1256;72789;-77
2023/02/23 08:53:01;;;;;;;52.00;34.10;;;;;;;8.65;100.00;100582.58;108852;1256;60557;-78
2023/02/23 08:55:28;;;;;;;50.60;33.80;;;;;;;8.63;100.00;100582.73;108863;1256;59358;-78
2023/02/23 08:57:55;;;;;;;47.50;31.20;;;;;;;8.63;100.00;100587.17;108843;1258;73397;-78
2023/02/23 09:00:22;;;;;;;48.90;32.10;;;;;;;8.61;100.00;100583.88;108756;1256;71517;-77
2023/02/23 09:02:50;;;;;;;48.20;32.30;;;;;;;8.60;100.00;100585.21;108869;1256;71364;-77
2023/02/23 09:05:16;;;;;;;48.20;32.30;;;;;;;8.61;100.00;100588.08;108868;1256;59749;-77
2023/02/23 09:07:44;;;;;;;45.60;30.90;;;;;;;8.65;100.00;100589.48;108781;1256;60293;-77
2023/02/23 09:10:19;;;;;;;44.60;31.30;;;;;;;8.66;100.00;100589.83;108652;1259;73152;-77
2023/02/23 09:12:46;;;;;;;41.70;30.20;;;;;;;8.66;100.00;100597.10;108690;1258;69993;-77
2023/02/23 09:15:12;;;;;;;41.60;28.20;;;;;;;8.63;100.00;100602.55;108689;1259;72769;-77
2023/02/23 09:17:43;;;;;;;43.20;30.40;;;;;;;8.60;100.00;100601.76;108669;1257;61255;-77
2023/02/23 09:20:12;;;;;;;44.40;30.10;;;;;;;8.58;100.00;100602.89;108737;1256;58975;-77
2023/02/23 09:22:40;;;;;;;45.80;30.30;;;;;;;8.59;100.00;100605.08;108782;1257;74206;-77
2023/02/23 09:25:09;;;;;;;47.20;31.00;;;;;;;8.56;100.00;100605.48;108769;1256;69936;-77
2023/02/23 09:27:36;;;;;;;45.80;30.90;;;;;;;8.53;100.00;100609.13;108683;1256;72410;-77
2023/02/23 09:30:03;;;;;;;43.90;30.70;;;;;;;8.52;100.00;100614.95;108874;1256;59967;-77
2023/02/23 09:32:30;;;;;;;48.40;31.90;;;;;;;8.52;100.00;100612.26;108860;1256;59248;-77
2023/02/23 09:34:57;;;;;;;51.50;30.90;;;;;;;8.51;100.00;100614.14;108896;1256;73627;-77
2023/02/23 09:37:24;;;;;;;46.90;31.30;;;;;;;8.50;100.00;100612.83;108865;1256;71046;-77
2023/02/23 09:39:51;;;;;;;53.70;32.50;;;;;;;8.49;100.00;100611.86;108857;1256;71388;-77
2023/02/23 09:42:44;;;;;;;51.10;32.50;;;;;;;8.50;100.00;100615.89;108900;1256;60926;-77
2023/02/23 09:45:22;;;;;;;46.40;30.50;;;;;;;8.47;100.00;100610.38;108742;1257;59046;-77
2023/02/23 09:48:03;;;;;;;50.00;31.40;;;;;;;8.46;100.00;100613.77;108771;1257;73148;-77
2023/02/23 09:50:33;;;;;;;52.70;34.90;;;;;;;8.44;100.00;100614.17;108876;1256;71774;-77
2023/02/23 09:53:05;;;;;;;57.50;36.20;;;;;;;8.46;100.00;100613.98;108719;1257;71115;-77
2023/02/23 09:55:32;;;;;;;55.00;32.80;;;;;;;8.49;100.00;100616.09;108766;1257;59444;-77
2023/02/23 09:58:06;;;;;;;58.70;35.00;;;;;;;8.50;100.00;100617.61;108787;1256;60547;-77
2023/02/23 10:00:41;;;;;;;48.90;31.70;;;;;;;8.49;100.00;100623.92;108812;1257;73474;-77
2023/02/23 10:03:18;;;;;;;46.20;30.10;;;;;;;8.42;100.00;100621.09;108870;1256;71005;-76
2023/02/23 10:05:53;;;;;;;55.50;35.10;;;;;;;8.35;100.00;100624.45;108770;1257;72458;-77
2023/02/23 10:08:34;;;;;;;52.50;33.30;;;;;;;8.34;100.00;100621.91;108831;1257;60297;-76
2023/02/23 10:11:18;;;;;;;51.50;32.00;;;;;;;8.34;100.00;100620.20;108801;1256;59758;-76
2023/02/23 10:14:07;;;;;;;50.20;31.30;;;;;;;8.34;100.00;100628.66;108846;1257;75311;-77
2023/02/23 10:17:03;;;;;;;49.30;31.50;;;;;;;8.32;100.00;100631.14;108845;1259;70895;-77
2023/02/23 10:20:05;;;;;;;53.40;33.30;;;;;;;8.31;100.00;100636.89;108872;1257;70928;-76
2023/02/23 10:22:34;;;;;;;47.90;30.60;;;;;;;8.32;100.00;100635.30;108615;1256;59676;-76
2023/02/23 10:25:13;;;;;;;50.20;31.70;;;;;;;8.32;100.00;100638.03;108819;1257;60136;-76
2023/02/23 10:27:47;;;;;;;50.40;31.10;;;;;;;8.31;100.00;100638.11;108818;1256;75287;-76
2023/02/23 10:30:22;;;;;;;50.00;30.90;;;;;;;8.31;100.00;100637.45;108731;1257;69764;-76
2023/02/23 10:33:00;;;;;;;50.10;30.90;;;;;;;8.32;100.00;100637.35;108851;1256;71869;-76
2023/02/23 10:35:28;;;;;;;44.60;27.50;;;;;;;8.33;100.00;100641.21;108870;1256;61546;-76
2023/02/23 10:37:56;;;;;;;46.10;28.50;;;;;;;8.31;100.00;100639.30;108867;1257;60051;-76
2023/02/23 10:40:27;;;;;;;47.90;29.70;;;;;;;8.31;100.00;100642.56;108768;1257;73198;-76
2023/02/23 10:42:57;;;;;;;46.40;29.40;;;;;;;8.32;100.00;100644.21;108762;1257;71396;-75
2023/02/23 10:45:26;;;;;;;46.80;30.30;;;;;;;8.33;100.00;100641.04;108805;1257;73192;-75
2023/02/23 10:48:07;;;;;;;46.00;28.50;;;;;;;8.34;100.00;100637.95;108766;1256;59961;-75
2023/02/23 10:50:38;;;;;;;42.90;27.00;;;;;;;8.33;100.00;100642.34;108892;1259;60410;-75
2023/02/23 10:53:15;;;;;;;46.60;28.50;;;;;;;8.32;100.00;100641.14;108881;1256;75072;-75
2023/02/23 10:55:44;;;;;;;45.30;28.30;;;;;;;8.33;100.00;100644.91;108740;1257;71407;-75
2023/02/23 10:58:17;;;;;;;45.60;29.10;;;;;;;8.33;100.00;100644.54;108732;1257;71016;-75
2023/02/23 11:00:58;;;;;;;44.70;27.70;;;;;;;8.37;100.00;100640.63;108739;1256;60082;-75
2023/02/23 11:03:49;;;;;;;41.40;26.20;;;;;;;8.44;100.00;100636.94;108754;1257;60771;-75
2023/02/23 11:06:27;;;;;;;41.70;25.60;;;;;;;8.46;100.00;100630.23;108904;1256;74363;-75
2023/02/23 11:08:55;;;;;;;36.90;23.10;;;;;;;8.48;100.00;100631.95;108853;1257;71363;-75
2023/02/23 11:11:29;;;;;;;39.20;24.10;;;;;;;8.49;100.00;100630.28;108818;1257;71429;-75
2023/02/23 11:13:57;;;;;;;37.10;23.00;;;;;;;8.49;100.00;100629.48;108696;1257;59631;-75
2023/02/23 11:16:27;;;;;;;35.00;22.80;;;;;;;8.50;100.00;100630.30;108746;1256;58976;-75
2023/02/23 11:19:00;;;;;;;34.80;23.10;;;;;;;8.49;100.00;100626.54;108718;1256;74487;-75
2023/02/23 11:21:34;;;;;;;34.70;22.50;;;;;;;8.52;100.00;100627.08;108919;1256;69924;-75
2023/02/23 11:24:23;;;;;;;31.50;21.30;;;;;;;8.53;100.00;100622.92;108882;1256;72689;-75
2023/02/23 11:26:53;;;;;;;29.80;20.60;;;;;;;8.53;100.00;100622.79;108841;1257;61454;-75
2023/02/23 11:29:32;;;;;;;30.10;20.10;;;;;;;8.51;100.00;100618.06;108841;1257;58776;-75
2023/02/23 11:32:04;;;;;;;33.20;21.20;;;;;;;8.50;100.00;100620.05;108847;1257;73712;-75
2023/02/23 11:34:40;;;;;;;32.10;21.30;;;;;;;8.50;100.00;100622.05;108883;1256;70473;-75
2023/02/23 11:37:22;;;;;;;32.20;20.80;;;;;;;8.50;100.00;100613.68;108861;1259;71418;-75
2023/02/23 11:40:00;;;;;;;32.50;21.40;;;;;;;8.55;100.00;100615.44;108911;1257;59661;-75
2023/02/23 11:42:34;;;;;;;29.60;20.80;;;;;;;8.59;100.00;100610.68;108903;1256;60129;-75
2023/02/23 11:45:14;;;;;;;29.90;20.70;;;;;;;8.64;100.00;100609.76;108793;1257;74068;-75
2023/02/23 11:47:45;;;;;;;29.70;20.00;;;;;;;8.68;100.00;100611.68;108875;1257;69673;-75
2023/02/23 11:50:26;;;;;;;29.80;20.20;;;;;;;8.72;100.00;100606.30;108694;1262;71529;-75
2023/02/23 11:52:59;;;;;;;26.70;18.80;;;;;;;8.76;100.00;100605.96;108892;1256;59656;-75
2023/02/23 11:55:28;;;;;;;28.90;19.10;;;;;;;8.79;100.00;100603.83;108826;1257;59112;-74
2023/02/23 11:58:28;;;;;;;27.80;18.60;;;;;;;8.84;100.00;100603.95;108771;1257;73570;-75
2023/02/23 12:00:56;;;;;;;25.30;17.30;;;;;;;8.87;100.00;100602.92;108763;1256;70792;-75
2023/02/23 12:03:25;;;;;;;24.50;16.90;;;;;;;8.85;100.00;100596.95;108804;1257;71261;-75
2023/02/23 12:05:57;;;;;;;23.40;16.60;;;;;;;8.86;100.00;100599.98;108812;1257;60339;-75
2023/02/23 12:08:34;;;;;;;20.50;14.90;;;;;;;8.85;100.00;100596.45;108869;1256;60346;-75
2023/02/23 12:11:05;;;;;;;21.80;15.60;;;;;;;8.83;100.00;100596.12;108918;1256;73152;-74
2023/02/23 12:13:41;;;;;;;20.80;14.90;;;;;;;8.79;100.00;100594.55;108755;1256;71454;-74
2023/02/23 12:16:26;;;;;;;20.70;14.20;;;;;;;8.74;100.00;100588.64;108836;1256;73059;-74
2023/02/23 12:19:17;;;;;;;21.40;15.20;;;;;;;8.74;100.00;100589.00;108889;1256;59686;-75
2023/02/23 12:21:56;;;;;;;20.10;14.40;;;;;;;8.72;100.00;100591.31;108789;1257;59541;-75
2023/02/23 12:24:37;;;;;;;21.30;15.00;;;;;;;8.70;100.00;100586.79;108804;1257;73162;-75
2023/02/23 12:27:15;;;;;;;21.90;16.10;;;;;;;8.69;100.00;100584.94;108900;1256;71325;-75
2023/02/23 12:29:50;;;;;;;21.60;15.70;;;;;;;8.74;100.00;100583.98;108693;1257;71119;-75
2023/02/23 12:32:22;;;;;;;20.40;15.00;;;;;;;8.76;100.00;100578.98;108886;1256;59323;-74
2023/02/23 12:35:09;;;;;;;22.10;16.60;;;;;;;8.83;100.00;100577.04;108837;1257;60066;-74
2023/02/23 12:37:47;;;;;;;21.30;16.10;;;;;;;8.91;100.00;100578.45;108894;1256;75870;-75
2023/02/23 12:40:28;;;;;;;22.90;16.50;;;;;;;8.98;100.00;100576.46;108812;1259;71045;-75
2023/02/23 12:43:10;;;;;;;24.70;17.80;;;;;;;9.07;100.00;100579.65;108729;1257;71116;-75
2023/02/23 12:45:47;;;;;;;24.40;17.60;;;;;;;9.13;100.00;100576.64;108776;1256;62075;-75
2023/02/23 12:48:28;;;;;;;26.30;19.30;;;;;;;9.22;100.00;100576.67;108747;1257;59406;-75
2023/02/23 12:50:57;;;;;;;25.90;18.60;;;;;;;9.23;100.00;100582.40;108871;1256;73156;-75
2023/02/23 12:53:36;;;;;;;32.30;21.90;;;;;;;9.19;100.00;100579.13;108911;1256;70248;-75